Time;durP1;ratioP1;P1;durP2;ratioP2;P2;SDS_P1;SDS_P2;PMS_P1;PMS_P2;Temp;Humidity;BMP_temperature;BMP_pressure;BME280_temperature;BME280_humidity;BME280_pressure;Samples;Min_cycle;Max_cycle;Signal;HPM_P1;HPM_P2
2024/03/30 00:00:22;;;;;;;14.30;8.50;;;;;;;10.42;53.14;99097.09;102566;1264;112072;-76
2024/03/30 00:03:42;;;;;;;15.90;9.20;;;;;;;10.40;53.38;99095.77;102439;1264;138227;-76
2024/03/30 00:06:43;;;;;;;17.00;8.80;;;;;;;10.40;53.59;99097.34;102599;1267;99090;-75
2024/03/30 00:09:43;;;;;;;13.50;8.80;;;;;;;10.39;54.01;99096.50;102468;1268;139062;-74
2024/03/30 00:12:44;;;;;;;17.30;9.80;;;;;;;10.40;54.07;99088.48;102581;1271;99444;-75
2024/03/30 00:15:45;;;;;;;16.30;9.70;;;;;;;10.41;54.34;99087.39;102526;1263;137972;-75
2024/03/30 00:18:46;;;;;;;15.90;9.30;;;;;;;10.43;54.46;99084.17;102541;1269;107018;-75
2024/03/30 00:21:46;;;;;;;17.90;10.10;;;;;;;10.46;54.79;99083.34;102536;1264;138017;-75
2024/03/30 00:24:46;;;;;;;19.40;9.90;;;;;;;10.48;54.46;99088.08;102623;1264;107957;-75
2024/03/30 00:27:46;;;;;;;16.90;9.40;;;;;;;10.49;54.99;99093.92;102482;1264;138393;-75
2024/03/30 00:30:46;;;;;;;16.60;9.70;;;;;;;10.50;55.43;99092.32;102617;1269;113007;-73
2024/03/30 00:33:46;;;;;;;16.30;9.50;;;;;;;10.48;55.66;99079.37;102496;1264;138206;-74
2024/03/30 00:36:46;;;;;;;17.80;9.40;;;;;;;10.51;55.27;99077.34;102514;1264;99311;-74
2024/03/30 00:39:46;;;;;;;17.70;9.50;;;;;;;10.53;55.46;99075.85;102442;1269;137857;-74
2024/03/30 00:42:46;;;;;;;17.10;9.50;;;;;;;10.52;55.53;99072.73;102581;1264;99195;-75
2024/03/30 00:45:57;;;;;;;14.30;9.20;;;;;;;10.53;55.58;99064.53;102497;1264;137951;-74
2024/03/30 00:48:58;;;;;;;17.50;9.20;;;;;;;10.53;55.68;99065.73;102588;1263;108097;-73
2024/03/30 00:51:58;;;;;;;14.20;9.20;;;;;;;10.53;55.87;99059.16;102456;1264;138139;-73
2024/03/30 00:54:59;;;;;;;15.40;9.30;;;;;;;10.51;55.84;99063.77;102632;1269;106526;-74
2024/03/30 00:58:00;;;;;;;17.60;9.10;;;;;;;10.49;56.22;99065.79;102468;1269;138436;-74
2024/03/30 01:01:02;;;;;;;15.10;9.00;;;;;;;10.46;56.35;99067.02;102627;1264;111981;-73
2024/03/30 01:04:02;;;;;;;15.10;9.00;;;;;;;10.41;56.71;99066.38;102486;1263;138151;-73
2024/03/30 01:07:03;;;;;;;20.40;9.20;;;;;;;10.36;56.76;99068.53;102612;1264;99753;-73
2024/03/30 01:10:03;;;;;;;16.00;9.30;;;;;;;10.31;57.13;99064.13;102425;1263;138693;-73
2024/03/30 01:13:04;;;;;;;15.10;9.40;;;;;;;10.26;57.38;99070.41;102578;1269;99153;-74
2024/03/30 01:16:06;;;;;;;15.70;9.60;;;;;;;10.22;57.54;99067.98;102464;1263;138762;-74
2024/03/30 01:19:08;;;;;;;16.70;9.80;;;;;;;10.19;58.05;99067.77;102498;1264;107899;-72
2024/03/30 01:22:10;;;;;;;15.40;9.80;;;;;;;10.13;57.83;99062.16;102461;1264;138850;-74
2024/03/30 01:25:12;;;;;;;18.40;10.00;;;;;;;10.10;58.33;99063.35;102576;1264;107163;-75
2024/03/30 01:28:16;;;;;;;16.60;9.10;;;;;;;10.09;58.42;99070.37;102519;1264;138858;-75
2024/03/30 01:31:19;;;;;;;16.90;9.10;;;;;;;10.07;58.87;99070.50;102628;1264;111981;-74
2024/03/30 01:34:20;;;;;;;17.70;9.60;;;;;;;10.04;59.11;99071.64;102804;1264;139183;-74
2024/03/30 01:37:21;;;;;;;16.70;8.50;;;;;;;10.02;59.48;99074.15;102585;1264;99730;-75
2024/03/30 01:40:22;;;;;;;16.60;9.40;;;;;;;10.01;59.51;99076.30;102445;1263;138610;-74
2024/03/30 01:43:22;;;;;;;14.30;9.30;;;;;;;10.00;59.63;99077.05;102544;1264;99230;-74
2024/03/30 01:46:23;;;;;;;17.60;9.40;;;;;;;10.00;59.68;99076.52;102502;1269;139593;-75
2024/03/30 01:49:26;;;;;;;17.30;8.70;;;;;;;10.00;59.85;99079.31;102579;1264;107629;-75
2024/03/30 01:52:29;;;;;;;17.00;9.40;;;;;;;9.98;60.06;99078.37;102374;1267;139840;-74
2024/03/30 01:55:30;;;;;;;16.50;9.30;;;;;;;9.97;60.07;99076.33;102714;1267;107493;-75
2024/03/30 01:58:34;;;;;;;18.40;9.50;;;;;;;9.96;60.51;99073.05;102272;1273;139861;-74
2024/03/30 02:01:35;;;;;;;17.10;9.40;;;;;;;9.95;60.91;99072.59;102500;1267;112749;-74
2024/03/30 02:04:37;;;;;;;15.50;9.20;;;;;;;9.95;60.92;99073.85;102388;1267;138514;-73
2024/03/30 02:07:39;;;;;;;16.80;9.50;;;;;;;9.93;61.18;99067.34;102528;1267;99698;-74
2024/03/30 02:10:40;;;;;;;17.20;9.10;;;;;;;9.92;61.14;99061.80;102808;1267;138339;-72
2024/03/30 02:13:41;;;;;;;14.30;8.90;;;;;;;9.92;61.00;99059.03;102824;1267;99692;-72
2024/03/30 02:16:42;;;;;;;18.70;9.10;;;;;;;9.93;61.08;99062.64;102567;1267;137194;-72
2024/03/30 02:19:46;;;;;;;15.00;8.90;;;;;;;9.95;61.22;99067.23;102614;1269;107932;-73
2024/03/30 02:22:47;;;;;;;14.20;8.70;;;;;;;9.96;61.31;99071.00;102564;1266;99119;-74
2024/03/30 02:25:48;;;;;;;17.30;8.50;;;;;;;9.96;61.36;99073.76;102475;1265;107961;-73
2024/03/30 02:28:49;;;;;;;14.90;9.00;;;;;;;9.99;61.44;99084.05;102529;1265;99272;-73
2024/03/30 02:31:50;;;;;;;14.20;8.90;;;;;;;10.00;61.49;99081.90;102458;1268;113274;-73
2024/03/30 02:34:51;;;;;;;20.30;9.50;;;;;;;9.99;61.56;99075.00;102454;1267;110999;-74
2024/03/30 02:37:53;;;;;;;16.00;8.70;;;;;;;10.03;61.47;99082.80;102543;1267;99189;-74
2024/03/30 02:40:59;;;;;;;13.60;8.60;;;;;;;10.03;61.82;99078.98;102446;1269;108032;-73
2024/03/30 02:44:03;;;;;;;17.90;8.70;;;;;;;10.04;61.70;99081.02;102442;1267;99178;-73
2024/03/30 02:47:04;;;;;;;15.70;7.90;;;;;;;10.05;61.84;99086.89;102424;1267;112621;-73
2024/03/30 02:50:05;;;;;;;17.60;9.10;;;;;;;10.05;61.79;99075.91;102469;1265;105746;-73
2024/03/30 02:53:05;;;;;;;18.40;8.70;;;;;;;10.06;62.01;99076.26;102605;1267;99692;-73
2024/03/30 02:56:05;;;;;;;15.70;8.10;;;;;;;10.06;61.99;99081.27;102675;1271;107345;-73
2024/03/30 02:59:06;;;;;;;15.10;8.40;;;;;;;10.05;62.26;99082.54;102668;1264;99063;-73
2024/03/30 03:02:06;;;;;;;16.80;8.70;;;;;;;10.08;62.30;99087.83;102500;1263;112824;-74
2024/03/30 03:05:06;;;;;;;14.50;7.80;;;;;;;10.08;62.32;99090.24;102471;1264;107207;-74
2024/03/30 03:08:06;;;;;;;16.60;8.50;;;;;;;10.06;62.55;99086.30;102608;1264;100877;-73
2024/03/30 03:11:06;;;;;;;15.60;8.40;;;;;;;10.05;62.77;99089.48;102560;1263;107212;-74
2024/03/30 03:14:07;;;;;;;15.30;8.10;;;;;;;10.03;63.03;99089.38;102573;1264;99617;-74
2024/03/30 03:17:08;;;;;;;15.50;7.90;;;;;;;10.01;62.99;99086.20;102640;1264;113400;-73
2024/03/30 03:20:08;;;;;;;15.10;8.10;;;;;;;9.98;63.15;99083.90;102554;1268;106056;-74
2024/03/30 03:23:09;;;;;;;14.80;8.50;;;;;;;9.96;63.29;99081.56;102589;1269;99708;-73
2024/03/30 03:26:09;;;;;;;17.40;7.70;;;;;;;9.95;63.19;99083.19;102760;1263;107295;-73
2024/03/30 03:29:10;;;;;;;14.10;7.40;;;;;;;9.94;63.56;99083.76;102911;1264;99192;-73
2024/03/30 03:32:11;;;;;;;13.50;7.30;;;;;;;9.93;63.64;99090.76;102626;1269;111776;-74
2024/03/30 03:35:12;;;;;;;18.50;8.10;;;;;;;9.91;63.99;99088.25;102554;1264;108062;-74
2024/03/30 03:38:14;;;;;;;14.80;7.70;;;;;;;9.89;63.98;99089.07;102640;1264;99208;-75
2024/03/30 03:41:15;;;;;;;17.20;7.80;;;;;;;9.90;64.31;99091.08;102529;1270;108195;-75
2024/03/30 03:44:15;;;;;;;14.60;7.60;;;;;;;9.89;64.85;99095.63;102586;1264;99169;-75
2024/03/30 03:47:17;;;;;;;16.80;7.70;;;;;;;9.89;64.90;99095.99;102580;1264;112017;-75
2024/03/30 03:50:17;;;;;;;14.10;7.90;;;;;;;9.88;64.91;99098.13;102521;1263;108950;-75
2024/03/30 03:53:18;;;;;;;11.90;7.40;;;;;;;9.88;65.08;99096.39;102575;1264;99131;-75
2024/03/30 03:56:19;;;;;;;12.50;7.20;;;;;;;9.88;65.21;99095.18;102578;1264;107615;-75
2024/03/30 03:59:20;;;;;;;14.10;7.40;;;;;;;9.89;65.36;99099.11;102587;1270;99220;-75
2024/03/30 04:02:21;;;;;;;16.70;7.20;;;;;;;9.90;65.62;99101.34;102625;1264;112665;-75
2024/03/30 04:05:22;;;;;;;12.80;7.10;;;;;;;9.90;65.93;99097.16;102538;1264;107802;-74
2024/03/30 04:08:22;;;;;;;11.80;6.80;;;;;;;9.90;65.85;99102.22;102595;1264;99281;-75
2024/03/30 04:11:22;;;;;;;12.60;6.80;;;;;;;9.83;66.04;99094.91;102509;1264;109667;-74
2024/03/30 04:14:23;;;;;;;12.10;6.90;;;;;;;9.87;66.16;99113.95;102538;1269;99188;-73
2024/03/30 04:17:24;;;;;;;11.70;6.90;;;;;;;9.86;66.48;99118.70;102617;1264;113206;-73
2024/03/30 04:20:25;;;;;;;11.90;6.60;;;;;;;9.83;66.49;99120.23;102535;1269;107696;-73
2024/03/30 04:23:25;;;;;;;14.80;7.70;;;;;;;9.80;66.76;99129.73;102623;1264;99246;-74
2024/03/30 04:26:26;;;;;;;12.00;7.20;;;;;;;9.78;66.90;99128.96;102404;1264;107287;-75
2024/03/30 04:29:26;;;;;;;14.70;7.60;;;;;;;9.75;66.84;99128.39;102576;1264;99298;-74
2024/03/30 04:32:26;;;;;;;10.80;6.30;;;;;;;9.78;66.88;99139.56;102589;1264;112847;-75
2024/03/30 04:35:26;;;;;;;15.00;6.40;;;;;;;9.79;66.92;99143.53;102512;1269;107625;-76
2024/03/30 04:38:27;;;;;;;14.10;7.20;;;;;;;9.79;66.99;99144.00;102565;1264;99826;-75
2024/03/30 04:41:27;;;;;;;12.10;6.80;;;;;;;9.82;66.86;99142.14;102575;1264;108258;-75
2024/03/30 04:44:28;;;;;;;13.40;6.70;;;;;;;9.88;66.94;99139.98;102518;1264;99715;-75
2024/03/30 04:47:29;;;;;;;16.20;6.20;;;;;;;9.93;67.03;99139.20;102572;1268;112313;-75
2024/03/30 04:50:30;;;;;;;14.30;7.10;;;;;;;9.99;66.95;99137.52;102573;1269;107426;-75
2024/03/30 04:53:32;;;;;;;13.40;6.90;;;;;;;10.04;67.08;99137.63;102562;1263;99814;-74
2024/03/30 04:56:32;;;;;;;15.50;6.70;;;;;;;10.15;67.23;99142.52;102541;1264;107188;-74
2024/03/30 04:59:32;;;;;;;12.60;6.30;;;;;;;10.56;66.57;99148.34;102610;1269;99169;-75
2024/03/30 05:02:32;;;;;;;14.70;6.10;;;;;;;10.64;66.03;99150.20;102503;1270;113623;-75
2024/03/30 05:05:33;;;;;;;11.30;5.80;;;;;;;10.58;65.90;99147.70;102568;1269;107706;-75
2024/03/30 05:08:34;;;;;;;14.50;6.60;;;;;;;10.54;65.87;99148.41;102477;1269;99698;-75
2024/03/30 05:11:35;;;;;;;10.90;6.20;;;;;;;10.60;66.13;99148.12;102491;1264;107600;-74
2024/03/30 05:14:36;;;;;;;13.50;6.10;;;;;;;10.92;65.79;99142.20;102505;1270;99164;-73
2024/03/30 05:17:37;;;;;;;11.30;5.70;;;;;;;11.12;65.19;99143.59;102549;1264;113721;-75
2024/03/30 05:20:53;;;;;;;13.50;6.20;;;;;;;11.53;64.90;99131.29;95056;1264;109226;-74
2024/03/30 05:23:53;;;;;;;12.70;6.30;;;;;;;12.89;63.75;99121.36;102533;1264;108030;-74
2024/03/30 05:26:53;;;;;;;12.10;6.20;;;;;;;14.64;60.27;99115.02;102582;1264;99119;-75
2024/03/30 05:29:55;;;;;;;12.20;5.40;;;;;;;16.26;56.38;99116.29;102566;1264;112141;-75
2024/03/30 05:32:58;;;;;;;12.10;6.20;;;;;;;17.62;52.41;99115.07;102548;1264;108228;-74
2024/03/30 05:36:00;;;;;;;13.00;5.60;;;;;;;18.83;49.56;99110.77;102585;1269;100810;-75
2024/03/30 05:39:00;;;;;;;12.60;5.70;;;;;;;19.98;46.98;99097.81;102571;1267;107113;-73
2024/03/30 05:42:00;;;;;;;12.50;5.40;;;;;;;20.99;44.81;99097.07;102501;1263;99179;-74
2024/03/30 05:45:01;;;;;;;11.10;5.30;;;;;;;21.93;42.73;99098.02;102555;1264;112614;-75
2024/03/30 05:48:02;;;;;;;8.80;5.50;;;;;;;22.82;41.23;99093.45;102599;1264;106941;-74
2024/03/30 05:51:02;;;;;;;10.00;5.10;;;;;;;23.55;39.27;99088.90;102549;1264;99214;-74
2024/03/30 05:54:02;;;;;;;10.70;5.30;;;;;;;24.09;38.52;99092.50;102581;1264;106872;-75
2024/03/30 05:57:02;;;;;;;10.00;5.40;;;;;;;24.85;37.49;99086.36;102575;1264;99208;-75
2024/03/30 06:00:02;;;;;;;9.40;5.10;;;;;;;25.54;36.37;99088.33;102617;1264;113603;-75
2024/03/30 06:03:03;;;;;;;9.90;5.10;;;;;;;26.00;34.69;99086.79;102512;1265;107422;-75
2024/03/30 06:06:03;;;;;;;8.40;4.80;;;;;;;26.33;33.74;99090.06;102500;1264;99068;-75
2024/03/30 06:09:04;;;;;;;8.40;4.80;;;;;;;26.58;34.01;99086.77;102539;1264;108658;-61
2024/03/30 06:12:03;;;;;;;9.10;4.80;;;;;;;26.97;33.19;99089.02;102648;1264;99199;-61
2024/03/30 06:15:04;;;;;;;9.60;4.50;;;;;;;27.26;31.50;99095.55;102572;1264;115086;-62
2024/03/30 06:18:05;;;;;;;11.60;5.70;;;;;;;27.40;31.41;99100.09;102528;1267;108716;-63
2024/03/30 06:21:06;;;;;;;7.20;4.40;;;;;;;27.73;30.92;99094.98;102680;1269;99159;-61
2024/03/30 06:24:06;;;;;;;9.80;5.10;;;;;;;27.85;30.64;99091.05;102602;1263;108336;-63
2024/03/30 06:27:07;;;;;;;7.90;5.00;;;;;;;28.22;29.98;99083.06;102659;1269;99160;-63
2024/03/30 06:30:08;;;;;;;10.40;4.70;;;;;;;28.40;30.03;99087.47;102676;1264;114117;-62
2024/03/30 06:33:10;;;;;;;8.80;4.50;;;;;;;28.93;30.23;99091.90;102643;1264;108465;-63
2024/03/30 06:36:10;;;;;;;9.00;3.90;;;;;;;29.23;29.52;99092.41;102736;1264;99284;-64
2024/03/30 06:39:11;;;;;;;7.40;4.20;;;;;;;29.82;28.53;99093.23;102568;1266;108122;-76
2024/03/30 06:45:31;;;;;;;10.00;4.70;;;;;;;29.68;27.75;99091.48;102625;1264;112115;-78
2024/03/30 06:48:32;;;;;;;12.50;4.30;;;;;;;29.79;27.72;99086.23;102556;1264;107958;-77
2024/03/30 06:51:32;;;;;;;9.60;4.60;;;;;;;30.02;27.59;99089.47;102595;1264;99295;-80
2024/03/30 06:54:32;;;;;;;8.70;4.00;;;;;;;30.62;27.99;99097.80;102661;1264;107630;-78
2024/03/30 06:57:32;;;;;;;9.00;4.20;;;;;;;31.14;26.90;99093.08;102614;1264;99204;-80
2024/03/30 07:00:34;;;;;;;8.10;4.30;;;;;;;31.41;26.47;99092.41;102597;1268;113782;-83
2024/03/30 07:03:34;;;;;;;8.50;4.30;;;;;;;31.85;26.41;99084.02;102557;1264;108104;-77
2024/03/30 07:06:35;;;;;;;11.30;4.30;;;;;;;32.14;25.74;99083.63;102576;1264;99080;-75
2024/03/30 07:09:36;;;;;;;10.40;4.10;;;;;;;32.37;25.56;99082.55;102570;1265;107236;-77
2024/03/30 07:12:38;;;;;;;9.80;4.40;;;;;;;32.61;25.59;99082.46;102607;1264;99097;-76
2024/03/30 07:15:38;;;;;;;11.30;4.10;;;;;;;33.01;25.51;99089.36;102602;1264;104937;-75
2024/03/30 07:18:38;;;;;;;10.30;4.30;;;;;;;33.25;25.20;99090.43;102541;1269;100219;-76
2024/03/30 07:21:38;;;;;;;11.70;4.00;;;;;;;33.64;24.85;99092.14;102559;1264;99688;-62
2024/03/30 07:24:39;;;;;;;11.40;4.00;;;;;;;33.89;24.44;99098.50;102782;1264;100354;-61
2024/03/30 07:27:40;;;;;;;14.00;4.30;;;;;;;34.24;24.69;99098.94;102577;1270;99178;-61
2024/03/30 07:30:44;;;;;;;12.30;3.90;;;;;;;34.43;23.45;99096.69;102619;1268;106091;-70
2024/03/30 07:33:44;;;;;;;12.40;4.40;;;;;;;34.29;23.83;99100.20;103104;1264;99381;-75
2024/03/30 07:36:45;;;;;;;13.60;3.90;;;;;;;34.28;23.92;99099.80;103264;1269;99046;-79
2024/03/30 07:39:46;;;;;;;10.30;4.00;;;;;;;34.40;23.41;99095.52;102755;1264;100701;-74
2024/03/30 07:42:47;;;;;;;14.10;4.20;;;;;;;34.09;23.60;99092.09;102639;1264;99283;-74
2024/03/30 07:45:47;;;;;;;15.40;4.40;;;;;;;34.03;23.74;99094.04;102612;1264;103961;-74
2024/03/30 07:48:48;;;;;;;12.30;4.60;;;;;;;34.15;23.27;99091.66;102572;1264;99157;-74
2024/03/30 07:51:48;;;;;;;12.70;4.10;;;;;;;34.21;22.92;99094.37;102581;1265;99173;-74
2024/03/30 07:54:49;;;;;;;13.80;4.50;;;;;;;34.16;22.92;99096.69;102584;1264;100404;-74
2024/03/30 07:57:50;;;;;;;13.70;4.50;;;;;;;34.17;22.93;99088.92;102602;1269;99165;-74
2024/03/30 08:00:51;;;;;;;11.20;3.90;;;;;;;34.24;23.27;99091.58;102604;1264;103838;-75
2024/03/30 08:03:52;;;;;;;14.60;4.10;;;;;;;34.15;22.60;99099.61;102617;1264;100164;-74
2024/03/30 08:06:55;;;;;;;15.50;4.40;;;;;;;33.59;22.67;99098.35;102523;1269;99197;-74
2024/03/30 08:09:55;;;;;;;10.40;4.00;;;;;;;33.31;23.52;99094.35;102453;1264;99518;-74
2024/03/30 08:12:56;;;;;;;12.30;3.70;;;;;;;33.40;23.48;99091.34;102608;1266;99662;-74
2024/03/30 08:15:57;;;;;;;12.70;4.30;;;;;;;33.41;23.93;99094.04;102611;1264;105836;-74
2024/03/30 08:18:58;;;;;;;12.10;4.60;;;;;;;33.42;23.83;99093.20;102589;1269;100031;-73
2024/03/30 08:21:59;;;;;;;9.20;3.80;;;;;;;33.74;23.55;99093.48;102585;1264;99166;-73
2024/03/30 08:25:00;;;;;;;12.10;4.00;;;;;;;33.71;23.04;99094.21;102580;1264;100573;-74
2024/03/30 08:28:00;;;;;;;15.30;4.20;;;;;;;33.52;23.40;99081.97;102568;1269;99176;-73
2024/03/30 08:31:00;;;;;;;14.40;4.40;;;;;;;33.38;23.30;99074.95;102598;1264;105057;-73
2024/03/30 08:34:01;;;;;;;11.30;3.80;;;;;;;33.29;23.97;99074.02;102508;1263;100242;-73
2024/03/30 08:37:01;;;;;;;13.00;3.90;;;;;;;33.58;23.71;99074.85;102600;1270;99167;-73
2024/03/30 08:40:01;;;;;;;17.90;4.20;;;;;;;33.75;23.56;99065.66;102690;1264;100213;-74
2024/03/30 08:43:01;;;;;;;14.90;3.80;;;;;;;34.22;23.28;99065.05;102855;1264;99166;-73
2024/03/30 08:46:02;;;;;;;11.40;3.90;;;;;;;34.13;22.79;99067.20;102643;1264;105762;-74
2024/03/30 08:49:12;;;;;;;13.30;4.30;;;;;;;33.63;22.96;99068.94;102647;1263;100100;-76
2024/03/30 08:52:12;;;;;;;14.10;3.30;;;;;;;33.22;22.83;99067.05;102730;1264;99168;-75
2024/03/30 08:55:13;;;;;;;16.80;4.20;;;;;;;32.50;23.66;99063.59;102545;1265;100066;-74
2024/03/30 08:58:14;;;;;;;15.70;3.90;;;;;;;31.99;24.36;99069.27;102573;1264;99055;-73
2024/03/30 09:01:16;;;;;;;13.10;3.40;;;;;;;31.71;24.58;99067.45;102623;1269;111976;-73
2024/03/30 09:04:17;;;;;;;13.50;3.80;;;;;;;31.25;24.59;99079.18;102560;1264;107067;-72
2024/03/30 09:07:18;;;;;;;13.10;3.60;;;;;;;30.83;25.36;99072.51;102638;1264;99253;-74
2024/03/30 09:10:18;;;;;;;17.40;4.10;;;;;;;30.93;25.51;99074.29;102589;1264;108797;-74
2024/03/30 09:13:18;;;;;;;15.10;4.40;;;;;;;31.30;25.43;99075.83;102546;1264;99069;-74
2024/03/30 09:16:18;;;;;;;14.60;3.70;;;;;;;31.19;25.20;99074.31;102579;1264;111744;-75
2024/03/30 09:19:18;;;;;;;9.20;3.10;;;;;;;30.54;25.23;99074.02;102557;1264;107928;-75
2024/03/30 09:22:19;;;;;;;19.50;4.60;;;;;;;30.12;25.91;99068.98;102559;1264;99183;-75
2024/03/30 09:25:19;;;;;;;12.70;3.80;;;;;;;29.94;26.17;99069.34;102537;1264;106768;-74
2024/03/30 09:28:19;;;;;;;12.40;3.80;;;;;;;29.48;26.27;99069.55;102607;1264;99288;-75
2024/03/30 09:31:20;;;;;;;16.50;4.10;;;;;;;28.94;27.08;99064.20;102636;1264;112974;-74
2024/03/30 09:34:20;;;;;;;17.30;3.80;;;;;;;28.98;27.45;99067.22;102543;1268;108068;-75
2024/03/30 09:37:36;;;;;;;11.60;3.80;;;;;;;28.99;27.40;99067.84;102644;1264;99246;-73
2024/03/30 09:40:37;;;;;;;19.50;3.90;;;;;;;29.03;27.40;99068.60;102559;1264;107793;-73
2024/03/30 09:43:39;;;;;;;16.20;4.20;;;;;;;29.02;27.52;99056.00;102576;1270;99175;-74
2024/03/30 09:46:41;;;;;;;18.30;4.20;;;;;;;29.13;27.65;99055.38;102599;1269;110569;-74
2024/03/30 09:49:42;;;;;;;16.20;4.00;;;;;;;29.23;27.72;99055.05;102615;1264;106982;-74
2024/03/30 09:52:44;;;;;;;12.70;3.80;;;;;;;29.21;27.81;99048.69;102592;1264;99118;-74
2024/03/30 09:55:46;;;;;;;15.00;3.80;;;;;;;29.24;27.63;99048.86;102601;1264;108101;-74
2024/03/30 09:58:47;;;;;;;15.40;3.90;;;;;;;29.01;27.42;99047.16;102605;1269;99231;-74
2024/03/30 10:01:48;;;;;;;13.50;3.50;;;;;;;29.13;27.61;99048.60;102617;1264;112924;-74
2024/03/30 10:04:49;;;;;;;9.40;3.50;;;;;;;29.11;27.57;99050.45;102552;1264;106938;-74
2024/03/30 10:07:55;;;;;;;9.90;3.30;;;;;;;28.97;27.54;99055.00;102591;1270;99176;-74
2024/03/30 10:11:00;;;;;;;15.50;3.50;;;;;;;28.85;27.83;99042.19;102586;1265;108429;-74
2024/03/30 10:14:07;;;;;;;12.70;3.30;;;;;;;28.73;27.36;99036.99;102574;1264;99192;-74
2024/03/30 10:17:08;;;;;;;14.30;3.40;;;;;;;28.62;27.54;99043.18;102599;1264;112083;-75
2024/03/30 10:20:12;;;;;;;13.10;3.30;;;;;;;28.50;27.28;99046.13;102565;1264;107903;-75
2024/03/30 10:23:13;;;;;;;11.90;3.50;;;;;;;28.23;27.62;99031.80;102707;1264;99094;-75
2024/03/30 10:26:21;;;;;;;16.80;3.20;;;;;;;28.15;27.93;99034.92;102582;1264;108205;-74
2024/03/30 10:29:21;;;;;;;15.50;3.50;;;;;;;27.91;27.57;99043.06;102556;1264;138252;-73
2024/03/30 10:32:21;;;;;;;10.60;3.00;;;;;;;27.67;28.24;99030.55;102619;1264;113366;-74
2024/03/30 10:35:25;;;;;;;17.20;3.50;;;;;;;27.48;28.51;99033.81;102486;1264;138198;-74
2024/03/30 10:38:26;;;;;;;12.20;3.60;;;;;;;27.52;28.89;99037.34;102629;1268;99176;-74
2024/03/30 10:41:27;;;;;;;14.90;3.60;;;;;;;27.39;28.26;99045.04;102440;1270;138035;-75
2024/03/30 10:44:33;;;;;;;12.20;3.50;;;;;;;27.25;28.40;99040.73;102619;1264;99160;-75
2024/03/30 10:47:35;;;;;;;19.10;3.20;;;;;;;26.96;28.28;99043.80;102852;1264;138101;-74
2024/03/30 10:50:35;;;;;;;17.80;3.70;;;;;;;26.69;28.65;99046.30;102625;1264;109072;-74
2024/03/30 10:53:36;;;;;;;14.00;3.60;;;;;;;26.42;29.19;99049.50;102546;1268;138259;-75
2024/03/30 10:56:36;;;;;;;13.30;3.10;;;;;;;26.16;29.81;99044.51;102652;1269;107228;-74
2024/03/30 10:59:45;;;;;;;16.70;3.50;;;;;;;26.00;29.92;99026.81;102499;1270;138211;-73
2024/03/30 11:02:47;;;;;;;12.90;3.40;;;;;;;25.89;30.21;99035.70;102574;1268;112381;-74
2024/03/30 11:05:49;;;;;;;14.20;3.60;;;;;;;25.64;30.51;99035.33;102473;1264;139063;-74
2024/03/30 11:08:50;;;;;;;12.40;3.00;;;;;;;25.44;30.79;99046.85;102597;1267;99176;-74
2024/03/30 11:11:51;;;;;;;12.60;2.80;;;;;;;25.24;30.97;99035.58;102494;1264;138891;-74
2024/03/30 11:14:52;;;;;;;15.60;2.90;;;;;;;24.99;30.97;99050.91;102565;1269;99185;-74
2024/03/30 11:17:58;;;;;;;13.10;3.20;;;;;;;24.72;31.58;99049.25;102471;1264;139101;-74
2024/03/30 11:21:05;;;;;;;16.30;3.00;;;;;;;24.59;31.66;99030.70;102535;1263;108055;-75
2024/03/30 11:24:09;;;;;;;10.10;2.60;;;;;;;24.52;31.46;99034.30;102365;1267;138127;-74
2024/03/30 11:27:18;;;;;;;15.10;2.90;;;;;;;24.48;31.86;99035.71;102571;1268;107479;-74
2024/03/30 11:30:34;;;;;;;10.50;2.60;;;;;;;24.44;31.40;99038.84;102475;1264;137968;-74
2024/03/30 11:33:45;;;;;;;9.20;2.40;;;;;;;24.31;31.56;99018.92;102604;1264;113139;-74
2024/03/30 11:36:51;;;;;;;9.30;2.70;;;;;;;24.34;31.92;99026.30;102458;1268;138493;-75
2024/03/30 11:40:02;;;;;;;9.90;2.60;;;;;;;24.32;31.83;99029.98;102576;1265;99237;-74
2024/03/30 11:43:13;;;;;;;12.30;3.40;;;;;;;24.23;31.70;99032.57;102433;1264;138755;-75
2024/03/30 11:46:15;;;;;;;10.40;3.40;;;;;;;24.13;31.66;99028.52;102885;1264;99182;-74
2024/03/30 11:49:18;;;;;;;11.20;2.80;;;;;;;24.20;32.00;99021.67;102681;1262;137896;-76
2024/03/30 11:52:20;;;;;;;10.70;3.00;;;;;;;24.23;31.68;99031.10;102693;1262;106844;-74
2024/03/30 11:55:29;;;;;;;15.50;3.70;;;;;;;24.16;31.98;99018.35;102623;1262;138163;-74
2024/03/30 11:58:31;;;;;;;13.30;3.70;;;;;;;24.17;32.18;99021.84;102695;1265;108636;-73
2024/03/30 12:01:32;;;;;;;10.40;3.20;;;;;;;24.12;32.38;99024.25;102633;1261;138515;-74
2024/03/30 12:04:34;;;;;;;12.30;3.40;;;;;;;24.07;32.52;99018.63;102767;1264;114493;-75
2024/03/30 12:07:39;;;;;;;10.30;3.70;;;;;;;24.15;32.57;99032.14;102586;1264;137874;-75
2024/03/30 12:10:40;;;;;;;12.10;3.30;;;;;;;24.19;32.82;99026.58;102778;1264;99207;-74
2024/03/30 12:13:47;;;;;;;15.00;3.80;;;;;;;24.18;32.62;99024.20;102639;1264;137635;-75
2024/03/30 12:16:49;;;;;;;10.40;3.20;;;;;;;24.12;32.73;99011.19;102762;1262;99166;-75
2024/03/30 12:19:49;;;;;;;11.30;2.90;;;;;;;24.14;32.70;99019.64;102787;1264;112383;-74
2024/03/30 12:22:51;;;;;;;6.60;2.40;;;;;;;24.06;32.27;99002.36;102719;1262;107694;-75
2024/03/30 12:25:57;;;;;;;14.50;2.60;;;;;;;24.03;32.49;98997.35;102868;1261;99162;-76
2024/03/30 12:28:57;;;;;;;9.60;2.30;;;;;;;24.03;32.34;99000.89;102847;1260;107099;-64
2024/03/30 12:31:58;;;;;;;8.70;2.70;;;;;;;23.96;32.43;99008.95;102853;1261;99178;-59
2024/03/30 12:34:59;;;;;;;11.20;2.60;;;;;;;23.87;32.69;98993.58;102753;1262;113267;-60
2024/03/30 12:38:00;;;;;;;9.30;2.70;;;;;;;23.90;32.94;98987.44;102683;1262;108231;-61
2024/03/30 12:41:01;;;;;;;13.10;3.20;;;;;;;23.99;32.95;98989.70;102791;1262;99192;-60
2024/03/30 12:44:08;;;;;;;8.10;2.20;;;;;;;24.07;32.68;98994.83;102807;1262;108837;-60
2024/03/30 12:47:11;;;;;;;12.30;2.80;;;;;;;24.13;32.37;98985.29;102890;1264;99205;-60
2024/03/30 12:50:13;;;;;;;16.60;3.30;;;;;;;24.16;32.57;98980.92;102723;1266;112716;-60
2024/03/30 12:53:14;;;;;;;9.90;2.50;;;;;;;24.19;32.49;98991.23;103188;1266;107206;-60
2024/03/30 12:56:15;;;;;;;15.50;3.40;;;;;;;24.19;32.79;98985.88;102849;1264;99399;-60
2024/03/30 12:59:17;;;;;;;9.50;2.50;;;;;;;24.28;32.45;98995.06;103600;1264;107695;-63
2024/03/30 13:02:17;;;;;;;11.10;2.90;;;;;;;24.28;32.20;99011.21;103842;1265;97145;-62
2024/03/30 13:05:22;;;;;;;10.50;3.10;;;;;;;24.15;32.19;98997.14;103327;1264;112569;-63
2024/03/30 13:08:23;;;;;;;10.00;2.50;;;;;;;24.05;32.42;99004.66;103539;1262;108756;-66
2024/03/30 13:11:25;;;;;;;14.30;2.60;;;;;;;24.01;32.59;98993.86;103468;1262;99191;-61
2024/03/30 13:14:26;;;;;;;10.80;2.30;;;;;;;23.94;32.36;98995.16;102732;1262;107440;-61
2024/03/30 13:17:27;;;;;;;10.50;2.90;;;;;;;23.90;32.65;99000.20;102688;1265;99223;-72
2024/03/30 13:20:29;;;;;;;9.20;2.70;;;;;;;23.86;32.85;98996.96;103172;1263;112584;-72
2024/03/30 13:23:30;;;;;;;10.00;2.50;;;;;;;23.86;33.04;98996.38;102729;1266;107615;-67
2024/03/30 13:26:32;;;;;;;10.70;2.70;;;;;;;23.88;33.38;98994.45;102697;1263;99478;-64
2024/03/30 13:29:36;;;;;;;13.50;3.30;;;;;;;23.91;33.46;98978.42;102594;1262;107430;-61
2024/03/30 13:32:36;;;;;;;11.70;2.70;;;;;;;23.94;32.88;98989.84;103822;1265;97666;-63
2024/03/30 13:35:38;;;;;;;14.50;2.90;;;;;;;23.93;33.29;98975.98;102725;1262;112188;-62
2024/03/30 13:38:38;;;;;;;11.20;3.20;;;;;;;23.94;33.13;98970.70;102634;1267;108851;-64
2024/03/30 13:41:38;;;;;;;15.00;3.60;;;;;;;23.97;33.00;98962.77;102817;1265;99209;-63
2024/03/30 13:44:39;;;;;;;13.60;2.80;;;;;;;23.98;33.10;98962.81;103140;1264;107549;-63
2024/03/30 13:47:39;;;;;;;10.90;2.70;;;;;;;23.96;33.01;98951.25;102526;1267;99078;-62
2024/03/30 13:50:40;;;;;;;16.10;3.00;;;;;;;23.99;33.29;98954.29;102979;1270;113477;-62
2024/03/30 13:53:41;;;;;;;17.10;3.30;;;;;;;23.99;33.22;98959.98;102475;1268;107349;-64